Time;durP1;ratioP1;P1;durP2;ratioP2;P2;SDS_P1;SDS_P2;PMS_P1;PMS_P2;Temp;Humidity;BMP_temperature;BMP_pressure;BME280_temperature;BME280_humidity;BME280_pressure;Samples;Min_cycle;Max_cycle;Signal;HPM_P1;HPM_P2
2022/10/18 00:00:38;;;;;;;23.83;9.93;;;13.40;99.90;;;;;;5066054;28;20051;-69
2022/10/18 00:03:04;;;;;;;16.48;10.10;;;13.40;99.90;;;;;;5065989;28;20051;-69
2022/10/18 00:05:30;;;;;;;16.73;10.48;;;13.30;99.90;;;;;;5067837;28;20371;-70
2022/10/18 00:07:56;;;;;;;23.48;10.73;;;13.40;99.90;;;;;;5067552;28;20143;-69
2022/10/18 00:10:23;;;;;;;20.83;10.05;;;13.30;99.90;;;;;;5068535;28;20442;-69
2022/10/18 00:12:50;;;;;;;18.13;10.18;;;13.30;99.90;;;;;;5067928;28;20036;-69
2022/10/18 00:15:16;;;;;;;15.35;9.82;;;13.30;99.90;;;;;;5069576;28;20098;-69
2022/10/18 00:17:42;;;;;;;18.20;9.45;;;13.30;99.90;;;;;;5065268;28;20087;-69
2022/10/18 00:20:09;;;;;;;20.30;10.20;;;13.30;99.90;;;;;;5068905;28;20076;-69
2022/10/18 00:22:36;;;;;;;20.98;9.05;;;13.30;99.90;;;;;;5068798;28;20071;-69
2022/10/18 00:25:02;;;;;;;20.50;10.10;;;13.30;99.90;;;;;;5063872;28;20120;-69
2022/10/18 00:27:29;;;;;;;19.77;9.68;;;13.20;99.90;;;;;;5067644;28;20128;-69
2022/10/18 00:29:55;;;;;;;24.30;10.48;;;13.20;99.90;;;;;;5065398;28;20120;-69
2022/10/18 00:32:21;;;;;;;19.85;11.20;;;13.20;99.90;;;;;;5065939;28;20144;-69
2022/10/18 00:34:47;;;;;;;16.65;10.88;;;13.20;99.90;;;;;;5027597;28;20521;-69
2022/10/18 00:37:13;;;;;;;25.20;12.00;;;13.20;99.90;;;;;;5063138;28;20040;-69
2022/10/18 00:39:39;;;;;;;20.25;12.30;;;13.20;99.90;;;;;;5069194;28;20045;-69
2022/10/18 00:42:04;;;;;;;19.88;11.32;;;13.20;99.90;;;;;;5065944;28;20055;-69
2022/10/18 00:44:30;;;;;;;25.50;10.80;;;13.20;99.90;;;;;;5067769;28;20545;-69
2022/10/18 00:47:07;;;;;;;23.88;12.32;;;13.20;99.90;;;;;;5067175;28;20119;-69
2022/10/18 00:49:36;;;;;;;22.13;11.48;;;13.20;99.90;;;;;;5057364;28;20080;-69
2022/10/18 00:52:10;;;;;;;20.77;11.00;;;13.20;99.90;;;;;;5065835;28;20552;-69
2022/10/18 00:54:39;;;;;;;24.25;12.40;;;13.20;99.90;;;;;;5067214;28;20040;-69
2022/10/18 00:57:06;;;;;;;19.85;11.60;;;13.20;99.90;;;;;;5066447;28;20513;-69
2022/10/18 00:59:32;;;;;;;16.33;10.20;;;13.10;99.90;;;;;;5065056;28;20033;-69
2022/10/18 01:01:58;;;;;;;17.00;10.77;;;13.10;99.90;;;;;;5066729;28;20037;-69
2022/10/18 01:04:24;;;;;;;25.98;11.15;;;13.10;99.90;;;;;;5069457;28;20102;-69
2022/10/18 01:07:11;;;;;;;23.05;12.15;;;13.10;99.90;;;;;;5059901;28;20072;-69
2022/10/18 01:09:46;;;;;;;22.05;11.20;;;13.10;99.90;;;;;;5049161;28;20044;-69
2022/10/18 01:12:49;;;;;;;21.73;11.80;;;13.10;99.90;;;;;;5055442;28;20094;-69
2022/10/18 01:15:34;;;;;;;20.98;11.05;;;13.10;99.90;;;;;;5066939;28;20106;-69
2022/10/18 01:18:24;;;;;;;15.05;9.82;;;13.00;99.90;;;;;;5067734;28;20032;-69
2022/10/18 01:20:52;;;;;;;18.38;10.23;;;13.00;99.90;;;;;;5067243;28;20052;-69
2022/10/18 01:23:37;;;;;;;16.42;9.77;;;13.00;99.90;;;;;;5067791;28;20378;-69
2022/10/18 01:26:27;;;;;;;21.60;11.27;;;13.00;99.90;;;;;;5066066;28;20583;-69
2022/10/18 01:29:00;;;;;;;46.20;12.23;;;13.00;99.90;;;;;;5067677;28;20059;-69
2022/10/18 01:31:50;;;;;;;18.08;10.82;;;13.00;99.90;;;;;;5050659;28;20048;-69
2022/10/18 01:34:18;;;;;;;16.08;10.40;;;12.90;99.90;;;;;;5061190;28;20437;-69
2022/10/18 01:36:50;;;;;;;92.65;13.98;;;12.90;99.90;;;;;;5068490;28;20443;-69
2022/10/18 01:39:20;;;;;;;51.40;13.60;;;12.90;99.90;;;;;;5051021;28;20058;-69
2022/10/18 01:41:50;;;;;;;75.43;14.88;;;13.10;99.90;;;;;;5068052;28;20131;-69
2022/10/18 01:44:21;;;;;;;38.55;13.55;;;12.90;99.90;;;;;;5069193;28;20450;-70
2022/10/18 01:46:47;;;;;;;20.27;13.63;;;12.90;99.90;;;;;;5067485;28;20098;-69
2022/10/18 01:49:12;;;;;;;20.42;14.15;;;13.00;99.90;;;;;;5066870;28;20060;-69
2022/10/18 01:51:38;;;;;;;32.22;13.98;;;12.90;99.90;;;;;;5067560;28;20084;-69
2022/10/18 01:54:04;;;;;;;27.30;13.63;;;13.00;99.90;;;;;;5066288;28;20036;-69
2022/10/18 01:56:36;;;;;;;20.08;13.38;;;13.00;99.90;;;;;;5067672;28;20036;-69
2022/10/18 01:59:05;;;;;;;33.80;14.02;;;13.00;99.90;;;;;;5065841;28;20622;-68
2022/10/18 02:02:01;;;;;;;55.63;13.45;;;13.00;99.90;;;;;;5066894;28;20055;-69
2022/10/18 02:04:33;;;;;;;152.10;15.13;;;13.00;99.90;;;;;;5066955;28;20515;-69
2022/10/18 02:07:22;;;;;;;83.63;15.48;;;13.00;99.90;;;;;;5045198;28;20064;-69
2022/10/18 02:10:09;;;;;;;45.88;13.30;;;13.00;99.90;;;;;;5046881;28;20060;-69
2022/10/18 02:12:38;;;;;;;116.38;15.13;;;13.00;99.90;;;;;;5044857;28;20501;-69
2022/10/18 02:15:06;;;;;;;47.08;14.18;;;13.00;99.90;;;;;;5062374;28;20044;-69
2022/10/18 02:17:32;;;;;;;40.33;13.32;;;13.00;99.90;;;;;;5066524;28;20037;-69
2022/10/18 02:20:00;;;;;;;122.50;15.32;;;13.30;99.90;;;;;;5066760;28;20448;-69
2022/10/18 02:22:30;;;;;;;25.40;13.35;;;13.10;99.90;;;;;;5066988;28;20048;-69
2022/10/18 02:25:00;;;;;;;37.85;13.40;;;13.00;99.90;;;;;;5065367;28;20051;-69
2022/10/18 02:27:26;;;;;;;50.10;13.38;;;13.00;99.90;;;;;;5048986;28;20084;-69
2022/10/18 02:29:52;;;;;;;39.78;14.95;;;13.00;99.90;;;;;;5048903;28;20091;-69
2022/10/18 02:32:39;;;;;;;17.77;13.48;;;13.10;99.90;;;;;;5066791;28;20051;-69
2022/10/18 02:35:27;;;;;;;44.60;13.85;;;13.10;99.90;;;;;;5065714;28;20445;-69
2022/10/18 02:37:56;;;;;;;23.15;13.18;;;13.10;99.90;;;;;;5065724;28;20053;-69
2022/10/18 02:40:23;;;;;;;17.83;13.38;;;13.10;99.90;;;;;;5066050;28;20063;-69
2022/10/18 02:42:52;;;;;;;61.10;14.88;;;13.10;99.90;;;;;;5066763;28;20044;-69
2022/10/18 02:45:18;;;;;;;94.25;16.40;;;13.10;99.90;;;;;;5083134;28;20049;-69
2022/10/18 02:47:44;;;;;;;52.45;15.52;;;13.10;99.90;;;;;;5065539;28;20394;-68
2022/10/18 02:50:10;;;;;;;24.98;15.63;;;13.10;99.90;;;;;;5065571;28;20063;-69
2022/10/18 02:52:36;;;;;;;69.05;15.18;;;13.10;99.90;;;;;;5066157;28;20052;-69
2022/10/18 02:55:03;;;;;;;43.65;14.32;;;13.00;99.90;;;;;;5065445;28;20432;-69
2022/10/18 02:57:29;;;;;;;25.40;13.90;;;13.10;99.90;;;;;;5066376;28;20603;-69
2022/10/18 02:59:55;;;;;;;57.55;14.30;;;13.10;99.90;;;;;;5066468;28;20052;-69
2022/10/18 03:02:21;;;;;;;55.30;14.10;;;13.00;99.90;;;;;;5065276;28;20056;-69
2022/10/18 03:04:47;;;;;;;19.55;12.93;;;13.00;99.90;;;;;;5065944;28;20131;-69
2022/10/18 03:07:12;;;;;;;29.48;13.85;;;13.00;99.90;;;;;;5067191;28;20148;-69
2022/10/18 03:09:38;;;;;;;22.50;13.75;;;13.00;99.90;;;;;;5067224;28;20527;-69
2022/10/18 03:12:04;;;;;;;19.38;13.55;;;13.10;99.90;;;;;;5048732;28;20044;-69
2022/10/18 03:14:29;;;;;;;27.02;14.05;;;13.00;99.90;;;;;;5065969;28;20041;-69
2022/10/18 03:16:55;;;;;;;21.00;13.60;;;13.00;99.90;;;;;;5065151;28;20098;-69
2022/10/18 03:19:21;;;;;;;25.80;14.30;;;13.00;99.90;;;;;;5066055;28;20052;-69
2022/10/18 03:21:47;;;;;;;46.90;14.20;;;13.00;99.90;;;;;;5065964;28;20117;-69
2022/10/18 03:24:12;;;;;;;81.22;15.43;;;13.00;99.90;;;;;;5065551;28;20110;-69
2022/10/18 03:26:38;;;;;;;43.55;13.65;;;13.00;99.90;;;;;;5066344;28;20040;-69
2022/10/18 03:29:05;;;;;;;42.40;13.98;;;13.00;99.90;;;;;;5049938;28;20060;-69
2022/10/18 03:31:31;;;;;;;23.02;12.48;;;13.00;99.90;;;;;;5066761;28;20052;-69
2022/10/18 03:33:57;;;;;;;66.60;13.73;;;13.00;99.90;;;;;;5049888;28;20045;-69
2022/10/18 03:36:23;;;;;;;58.38;13.32;;;13.00;99.90;;;;;;5068408;28;20453;-68
2022/10/18 03:38:48;;;;;;;33.85;12.90;;;13.00;99.90;;;;;;5066605;28;20041;-69
2022/10/18 03:41:16;;;;;;;28.98;12.35;;;12.90;99.90;;;;;;5070455;28;20076;-68
2022/10/18 03:43:42;;;;;;;17.98;12.82;;;12.90;99.90;;;;;;5069166;28;20072;-69
2022/10/18 03:46:08;;;;;;;19.08;11.57;;;13.00;99.90;;;;;;5070704;28;20048;-69
2022/10/18 03:48:33;;;;;;;27.60;13.45;;;12.90;99.90;;;;;;5069544;28;20044;-68
2022/10/18 03:50:59;;;;;;;17.05;11.45;;;12.90;99.90;;;;;;5068277;28;20052;-68
2022/10/18 03:53:25;;;;;;;74.07;13.57;;;12.90;99.90;;;;;;5069728;28;20092;-68
2022/10/18 03:55:54;;;;;;;22.75;11.70;;;12.80;99.90;;;;;;5068964;28;20496;-68
2022/10/18 03:58:21;;;;;;;23.38;12.68;;;12.90;99.90;;;;;;5052024;28;20049;-68
2022/10/18 04:00:52;;;;;;;17.73;12.60;;;12.80;99.90;;;;;;5069082;28;20037;-68
2022/10/18 04:03:18;;;;;;;45.03;12.77;;;12.80;99.90;;;;;;5052754;28;20048;-68
2022/10/18 04:05:45;;;;;;;22.85;12.32;;;12.80;99.90;;;;;;5070185;28;20449;-69
2022/10/18 04:08:11;;;;;;;86.68;12.50;;;12.80;99.90;;;;;;5051864;28;20409;-69
2022/10/18 04:10:38;;;;;;;40.80;12.20;;;12.80;99.90;;;;;;5049059;28;20051;-69
2022/10/18 04:13:04;;;;;;;27.35;11.52;;;12.80;99.90;;;;;;5061657;28;20042;-68
2022/10/18 04:15:30;;;;;;;71.22;13.70;;;12.70;99.90;;;;;;5070753;28;20119;-69
2022/10/18 04:17:56;;;;;;;20.63;11.45;;;12.70;99.90;;;;;;5058336;28;20135;-69
2022/10/18 04:20:22;;;;;;;30.00;11.23;;;12.70;99.90;;;;;;5068728;28;20052;-69
2022/10/18 04:22:48;;;;;;;16.45;11.02;;;12.60;99.90;;;;;;5068794;28;20102;-69
2022/10/18 04:25:15;;;;;;;33.65;11.13;;;12.60;99.90;;;;;;5052118;28;20256;-68
2022/10/18 04:27:41;;;;;;;25.42;10.68;;;12.60;99.90;;;;;;5067890;28;20418;-68
2022/10/18 04:30:07;;;;;;;17.48;11.05;;;12.60;99.90;;;;;;5069104;28;20048;-69
2022/10/18 04:32:34;;;;;;;15.43;10.32;;;12.60;99.90;;;;;;5051894;28;20432;-69
2022/10/18 04:35:04;;;;;;;20.58;10.60;;;12.60;99.90;;;;;;5101756;28;20119;-69
2022/10/18 04:37:30;;;;;;;13.20;10.32;;;12.50;99.90;;;;;;5048735;28;20045;-69
2022/10/18 04:39:55;;;;;;;31.50;11.23;;;12.70;99.90;;;;;;5048930;28;20372;-69
2022/10/18 04:42:21;;;;;;;20.30;10.55;;;12.50;99.90;;;;;;5066929;28;20041;-69
2022/10/18 04:44:47;;;;;;;14.02;10.10;;;12.50;99.90;;;;;;5069619;28;20048;-69
2022/10/18 04:47:13;;;;;;;20.73;9.45;;;12.50;99.90;;;;;;5047809;28;20056;-69
2022/10/18 04:49:39;;;;;;;18.27;10.15;;;12.40;99.90;;;;;;5075574;28;20048;-69
2022/10/18 04:52:04;;;;;;;12.80;9.60;;;12.40;99.90;;;;;;5066911;28;20444;-69
2022/10/18 04:54:30;;;;;;;15.85;9.20;;;12.40;99.90;;;;;;5069422;28;20045;-69
2022/10/18 04:56:56;;;;;;;12.70;9.25;;;12.40;99.90;;;;;;5068790;28;20049;-69
2022/10/18 04:59:22;;;;;;;14.27;9.73;;;12.40;99.90;;;;;;5068213;28;20257;-69
2022/10/18 05:01:47;;;;;;;15.27;10.27;;;12.40;99.90;;;;;;5062468;28;20076;-69
2022/10/18 05:04:13;;;;;;;14.27;9.52;;;12.40;99.90;;;;;;5051151;28;20485;-69
2022/10/18 05:06:39;;;;;;;39.92;10.65;;;12.40;99.90;;;;;;5069645;28;20049;-69
2022/10/18 05:09:05;;;;;;;15.95;9.90;;;12.40;99.90;;;;;;5067089;28;20044;-69
2022/10/18 05:11:31;;;;;;;16.23;9.23;;;12.40;99.90;;;;;;5070306;28;20044;-69
2022/10/18 05:13:56;;;;;;;11.02;9.02;;;12.40;99.90;;;;;;5067644;28;20036;-69
2022/10/18 05:16:22;;;;;;;11.82;9.35;;;12.30;99.90;;;;;;5068980;28;20099;-69
2022/10/18 05:18:48;;;;;;;21.20;9.73;;;12.30;99.90;;;;;;5068306;28;20406;-69
2022/10/18 05:21:13;;;;;;;11.98;7.97;;;12.30;99.90;;;;;;5069437;28;20040;-69
2022/10/18 05:23:39;;;;;;;14.50;8.25;;;12.30;99.90;;;;;;5068403;28;20045;-69
2022/10/18 05:26:06;;;;;;;11.93;8.52;;;12.30;99.90;;;;;;5069549;28;20041;-69
2022/10/18 05:28:33;;;;;;;11.95;9.35;;;12.30;99.90;;;;;;5067280;28;20128;-69
2022/10/18 05:31:01;;;;;;;12.15;8.75;;;12.30;99.90;;;;;;5067725;28;20107;-69
2022/10/18 05:33:27;;;;;;;13.68;8.32;;;12.20;99.90;;;;;;5067519;28;20123;-69
2022/10/18 05:35:53;;;;;;;11.10;7.47;;;12.20;99.90;;;;;;5066865;28;20511;-69
2022/10/18 05:38:19;;;;;;;23.23;8.15;;;12.20;99.90;;;;;;5067139;28;20048;-69
2022/10/18 05:40:45;;;;;;;30.08;7.90;;;12.20;99.90;;;;;;5063798;28;20394;-69
2022/10/18 05:43:11;;;;;;;39.08;7.80;;;12.10;99.90;;;;;;5057712;28;20047;-69
2022/10/18 05:45:36;;;;;;;16.85;7.45;;;12.10;99.90;;;;;;5030973;28;20048;-68
2022/10/18 05:48:04;;;;;;;30.27;7.75;;;12.00;99.90;;;;;;5047155;28;20095;-69
2022/10/18 05:50:30;;;;;;;15.82;7.05;;;12.00;99.90;;;;;;5064583;28;20125;-69
2022/10/18 05:52:56;;;;;;;8.88;6.30;;;11.90;99.90;;;;;;5066361;28;20504;-69
2022/10/18 05:55:22;;;;;;;34.60;7.70;;;11.90;99.90;;;;;;5067445;28;20048;-69
2022/10/18 05:57:50;;;;;;;11.75;6.90;;;11.90;99.90;;;;;;5046501;28;20520;-69
2022/10/18 06:00:17;;;;;;;11.82;6.78;;;11.80;99.90;;;;;;5044838;28;20531;-69
2022/10/18 06:02:42;;;;;;;8.52;6.57;;;11.80;99.90;;;;;;5067708;28;20552;-69
2022/10/18 06:05:08;;;;;;;12.20;6.90;;;11.80;99.90;;;;;;5045060;28;20068;-69
2022/10/18 06:07:34;;;;;;;11.40;6.82;;;11.80;99.90;;;;;;5060046;28;20520;-69
2022/10/18 06:09:59;;;;;;;13.32;7.10;;;11.70;99.90;;;;;;5055407;28;20400;-69
2022/10/18 06:12:25;;;;;;;9.88;6.20;;;11.70;99.90;;;;;;5055942;28;20521;-69
2022/10/18 06:14:51;;;;;;;10.18;7.03;;;11.60;99.90;;;;;;5075204;28;20139;-69
2022/10/18 06:17:17;;;;;;;10.75;6.22;;;11.60;99.90;;;;;;5061532;28;20040;-69
2022/10/18 06:19:43;;;;;;;8.98;6.30;;;11.60;99.90;;;;;;5045376;28;20052;-69
2022/10/18 06:22:09;;;;;;;12.23;6.60;;;11.60;99.90;;;;;;5067222;28;20074;-69
2022/10/18 06:24:35;;;;;;;9.70;6.47;;;11.60;99.90;;;;;;5066808;28;20095;-69
2022/10/18 06:27:07;;;;;;;9.18;6.63;;;11.60;99.90;;;;;;5065090;28;20045;-69
2022/10/18 06:29:34;;;;;;;12.13;6.05;;;11.60;99.90;;;;;;5067866;28;20072;-69
2022/10/18 06:31:59;;;;;;;9.57;7.30;;;11.50;99.90;;;;;;5065535;28;20099;-69
2022/10/18 06:34:25;;;;;;;14.68;6.65;;;11.60;99.90;;;;;;5065870;28;20538;-69
2022/10/18 06:36:51;;;;;;;38.58;6.45;;;11.40;99.90;;;;;;5066210;28;20409;-69
2022/10/18 06:39:16;;;;;;;11.25;5.90;;;11.40;99.90;;;;;;5067913;28;20044;-69
2022/10/18 06:41:42;;;;;;;8.07;5.50;;;11.40;99.90;;;;;;5065964;28;20044;-69
2022/10/18 06:44:12;;;;;;;9.48;6.05;;;11.30;99.90;;;;;;5065166;28;20046;-68
2022/10/18 06:46:43;;;;;;;9.68;5.70;;;11.60;99.90;;;;;;5066281;28;20055;-69
2022/10/18 06:49:09;;;;;;;7.20;5.10;;;11.30;99.90;;;;;;5065892;28;20043;-68
2022/10/18 06:51:35;;;;;;;8.02;5.35;;;11.30;99.90;;;;;;5065850;28;20044;-69
2022/10/18 06:54:02;;;;;;;7.57;5.28;;;11.30;99.90;;;;;;5065972;28;20076;-69
2022/10/18 06:56:28;;;;;;;11.95;5.13;;;11.30;99.90;;;;;;5066316;28;20090;-69
2022/10/18 06:58:54;;;;;;;9.60;4.88;;;11.30;99.90;;;;;;5067036;28;20552;-69
2022/10/18 07:01:20;;;;;;;9.35;5.13;;;11.30;99.90;;;;;;5064563;28;20072;-69
2022/10/18 07:03:50;;;;;;;8.25;5.15;;;11.20;99.90;;;;;;5064185;28;20135;-69
2022/10/18 07:06:17;;;;;;;13.77;5.07;;;11.20;99.90;;;;;;5068101;28;20084;-69
2022/10/18 07:08:43;;;;;;;15.13;5.18;;;11.20;99.90;;;;;;5048034;28;20116;-68
2022/10/18 07:11:16;;;;;;;9.13;5.18;;;11.20;99.90;;;;;;5047326;28;20122;-69
2022/10/18 07:13:41;;;;;;;9.60;4.88;;;11.30;99.90;;;;;;5040247;28;20033;-69
2022/10/18 07:16:10;;;;;;;8.50;5.28;;;11.20;99.90;;;;;;5067399;28;20451;-69
2022/10/18 07:18:38;;;;;;;8.70;5.10;;;11.20;99.90;;;;;;5060259;28;20512;-69
2022/10/18 07:21:06;;;;;;;12.25;5.20;;;11.20;99.90;;;;;;5069177;28;20089;-69
2022/10/18 07:23:37;;;;;;;31.02;5.75;;;11.20;99.90;;;;;;5069661;28;20052;-69
2022/10/18 07:26:18;;;;;;;8.63;4.63;;;11.20;99.90;;;;;;5051062;28;20116;-69
2022/10/18 07:28:45;;;;;;;7.93;4.90;;;11.30;99.90;;;;;;5049648;28;20056;-69
2022/10/18 07:31:12;;;;;;;8.55;4.50;;;11.20;99.90;;;;;;5049265;28;20048;-68
2022/10/18 07:33:38;;;;;;;6.40;4.50;;;11.30;99.90;;;;;;5055902;28;20040;-69
2022/10/18 07:36:07;;;;;;;8.00;4.93;;;11.30;99.90;;;;;;5082249;28;20052;-68
2022/10/18 07:38:34;;;;;;;7.93;4.80;;;11.30;99.90;;;;;;5051404;28;20044;-69
2022/10/18 07:41:02;;;;;;;8.80;4.68;;;11.30;99.90;;;;;;5082674;28;20079;-69
2022/10/18 07:43:28;;;;;;;7.78;4.75;;;11.30;99.90;;;;;;5082749;28;20045;-69
2022/10/18 07:45:55;;;;;;;9.55;4.78;;;11.40;99.90;;;;;;5083099;28;20569;-69
2022/10/18 07:48:21;;;;;;;8.13;3.85;;;11.40;99.90;;;;;;5041755;28;20463;-68
2022/10/18 07:50:47;;;;;;;10.45;4.78;;;11.40;99.90;;;;;;5070155;28;20131;-69
2022/10/18 07:53:12;;;;;;;7.35;4.75;;;11.40;99.90;;;;;;5064909;28;20033;-68
2022/10/18 07:55:38;;;;;;;6.97;4.55;;;11.50;99.90;;;;;;5064378;28;20044;-69
2022/10/18 07:58:05;;;;;;;9.77;4.68;;;11.50;99.90;;;;;;5067518;28;20051;-69
2022/10/18 08:00:30;;;;;;;8.05;4.88;;;11.60;99.90;;;;;;5069441;28;20493;-69
2022/10/18 08:02:57;;;;;;;8.32;4.00;;;11.70;99.90;;;;;;5065430;28;20068;-69
2022/10/18 08:05:23;;;;;;;7.82;4.63;;;11.70;99.90;;;;;;5067599;28;20044;-69
2022/10/18 08:07:49;;;;;;;8.45;4.60;;;11.70;99.90;;;;;;5057367;28;20167;-69
2022/10/18 08:10:15;;;;;;;9.93;4.55;;;11.80;99.90;;;;;;5040589;28;20142;-69
2022/10/18 08:12:41;;;;;;;10.60;4.82;;;11.90;99.90;;;;;;5065457;28;20138;-69
2022/10/18 08:15:07;;;;;;;7.10;3.78;;;11.90;99.90;;;;;;5066010;28;20045;-69
2022/10/18 08:17:33;;;;;;;7.68;4.20;;;12.00;99.90;;;;;;5060420;28;20041;-68
2022/10/18 08:19:59;;;;;;;9.68;4.40;;;12.10;99.90;;;;;;5065395;28;20104;-69
2022/10/18 08:22:24;;;;;;;8.93;3.83;;;12.10;99.90;;;;;;5067071;28;20048;-69
2022/10/18 08:24:50;;;;;;;10.73;3.92;;;12.20;99.90;;;;;;5065511;28;20177;-69
2022/10/18 08:27:16;;;;;;;9.15;3.70;;;12.30;99.90;;;;;;5063811;28;20082;-69
2022/10/18 08:29:42;;;;;;;11.63;4.05;;;12.30;99.90;;;;;;5065705;28;20059;-68
2022/10/18 08:32:07;;;;;;;11.30;3.95;;;12.40;99.90;;;;;;5047123;28;20536;-69
2022/10/18 08:34:34;;;;;;;9.65;3.65;;;12.50;99.90;;;;;;5065383;28;20083;-69
2022/10/18 08:37:00;;;;;;;9.07;3.45;;;12.50;99.90;;;;;;5065085;28;20040;-68
2022/10/18 08:39:26;;;;;;;7.35;3.17;;;12.60;99.90;;;;;;5064861;28;20127;-68
2022/10/18 08:42:11;;;;;;;13.63;3.33;;;12.70;99.90;;;;;;5061246;28;20132;-69
2022/10/18 08:44:51;;;;;;;11.25;3.35;;;12.70;99.90;;;;;;5052044;28;20044;-68
2022/10/18 08:47:28;;;;;;;8.25;3.45;;;12.80;99.90;;;;;;5067385;28;20049;-68
2022/10/18 08:50:01;;;;;;;11.73;3.30;;;12.90;99.90;;;;;;5065971;28;20075;-69
2022/10/18 08:52:42;;;;;;;13.77;4.05;;;13.00;99.90;;;;;;5065520;28;20087;-69
2022/10/18 08:55:26;;;;;;;13.52;3.63;;;13.00;99.90;;;;;;5037060;28;20396;-69
2022/10/18 08:57:52;;;;;;;11.18;3.55;;;13.10;99.90;;;;;;5065593;28;20056;-69
2022/10/18 09:00:20;;;;;;;12.43;3.38;;;13.10;99.90;;;;;;5062076;28;20902;-69
2022/10/18 09:03:04;;;;;;;16.35;3.75;;;13.20;99.90;;;;;;5045852;28;20124;-69
2022/10/18 09:05:39;;;;;;;9.10;3.22;;;13.20;99.90;;;;;;5054910;28;20830;-69
2022/10/18 09:08:24;;;;;;;11.13;3.55;;;13.30;99.90;;;;;;5046914;28;20045;-69
2022/10/18 09:11:14;;;;;;;9.98;3.25;;;13.30;99.90;;;;;;5064115;28;20109;-68
2022/10/18 09:13:55;;;;;;;11.50;3.60;;;13.40;99.90;;;;;;5063838;28;20109;-69
2022/10/18 09:16:30;;;;;;;16.90;3.88;;;13.40;99.90;;;;;;5050253;28;20526;-69
2022/10/18 09:19:06;;;;;;;14.95;3.33;;;13.50;99.90;;;;;;5053746;28;20048;-68
2022/10/18 09:21:52;;;;;;;15.82;3.28;;;13.60;99.90;;;;;;5060405;28;20045;-69
2022/10/18 09:24:26;;;;;;;16.17;3.50;;;13.60;99.90;;;;;;5059125;28;20684;-68
2022/10/18 09:27:01;;;;;;;14.00;3.28;;;13.70;99.90;;;;;;5059019;28;20060;-69
2022/10/18 09:29:45;;;;;;;14.73;3.17;;;13.70;99.90;;;;;;5057425;28;20063;-69
2022/10/18 09:32:50;;;;;;;11.88;2.47;;;13.80;99.90;;;;;;5089748;28;20109;-69
2022/10/18 09:35:21;;;;;;;13.98;2.63;;;13.90;99.90;;;;;;5053316;28;20040;-70
2022/10/18 09:37:48;;;;;;;14.55;2.13;;;13.90;99.90;;;;;;5053363;28;20044;-70
2022/10/18 09:40:22;;;;;;;18.33;2.67;;;13.90;99.90;;;;;;5056166;28;20088;-69
2022/10/18 09:43:06;;;;;;;18.40;2.75;;;14.00;99.90;;;;;;5059757;28;20045;-69
2022/10/18 09:45:38;;;;;;;11.32;2.00;;;14.00;99.90;;;;;;5056216;28;20408;-69
2022/10/18 09:48:13;;;;;;;18.63;3.22;;;14.00;99.90;;;;;;5054230;28;20552;-69
2022/10/18 09:51:04;;;;;;;14.88;1.95;;;14.00;99.90;;;;;;5053689;28;20060;-70
2022/10/18 09:53:44;;;;;;;13.85;2.00;;;14.00;99.90;;;;;;5058443;28;20044;-70
2022/10/18 09:56:16;;;;;;;14.48;2.20;;;14.10;99.90;;;;;;5060928;28;20048;-70
2022/10/18 09:58:44;;;;;;;13.00;2.38;;;14.10;99.90;;;;;;5039049;28;20040;-69
2022/10/18 10:01:18;;;;;;;15.75;2.30;;;14.10;99.90;;;;;;5054551;28;20104;-70
2022/10/18 10:03:44;;;;;;;16.98;2.88;;;14.10;99.90;;;;;;5063933;28;20104;-70
2022/10/18 10:06:15;;;;;;;15.18;2.13;;;14.10;99.90;;;;;;5056551;28;20048;-70
2022/10/18 10:09:06;;;;;;;14.85;2.17;;;14.20;99.90;;;;;;5047621;28;20564;-71
2022/10/18 10:11:35;;;;;;;12.27;2.10;;;14.20;99.90;;;;;;5035773;28;20071;-71
2022/10/18 10:14:08;;;;;;;15.20;2.83;;;14.20;99.90;;;;;;5054689;28;20060;-70
2022/10/18 10:16:43;;;;;;;20.60;2.60;;;14.20;99.90;;;;;;5055013;28;20760;-70
2022/10/18 10:19:27;;;;;;;13.77;2.00;;;14.20;99.90;;;;;;5053854;28;20156;-71
2022/10/18 10:22:01;;;;;;;15.10;1.83;;;14.20;99.90;;;;;;5057448;28;20036;-71
2022/10/18 10:24:36;;;;;;;11.95;2.10;;;14.30;99.90;;;;;;5056079;28;20052;-69
2022/10/18 10:27:05;;;;;;;11.45;2.30;;;14.30;99.90;;;;;;5052831;28;20055;-69
2022/10/18 10:29:46;;;;;;;21.83;4.35;;;14.30;99.90;;;;;;5085520;28;20056;-70
2022/10/18 10:32:15;;;;;;;14.98;2.60;;;14.30;99.90;;;;;;5052224;28;20045;-70
2022/10/18 10:34:41;;;;;;;19.30;2.72;;;14.30;99.90;;;;;;5054558;28;20045;-70
2022/10/18 10:37:27;;;;;;;15.75;1.85;;;14.30;99.90;;;;;;5036657;28;20091;-70
2022/10/18 10:40:16;;;;;;;19.83;2.40;;;14.30;99.90;;;;;;5084482;28;20048;-71
2022/10/18 10:43:08;;;;;;;9.73;1.60;;;14.30;99.90;;;;;;5054729;28;20043;-70
2022/10/18 10:45:59;;;;;;;17.63;2.65;;;14.30;99.90;;;;;;5031797;28;20076;-71
2022/10/18 10:48:26;;;;;;;10.18;1.75;;;14.50;99.90;;;;;;5061085;28;20056;-71
2022/10/18 10:50:54;;;;;;;12.45;1.63;;;14.50;99.90;;;;;;5063215;28;20058;-71
2022/10/18 10:53:50;;;;;;;16.27;2.03;;;14.60;99.90;;;;;;5060733;28;20126;-71
2022/10/18 10:56:28;;;;;;;11.88;1.77;;;14.60;99.90;;;;;;5056518;28;20480;-71
2022/10/18 10:58:57;;;;;;;11.93;1.55;;;14.60;99.90;;;;;;5038322;28;20127;-71
2022/10/18 11:01:31;;;;;;;11.45;1.92;;;14.60;99.90;;;;;;5053299;28;20432;-71
2022/10/18 11:04:20;;;;;;;9.55;1.70;;;14.70;99.90;;;;;;5058996;28;20200;-71
2022/10/18 11:07:08;;;;;;;9.27;1.60;;;14.70;99.90;;;;;;5059291;28;20080;-71
2022/10/18 11:09:47;;;;;;;12.07;1.90;;;14.80;99.90;;;;;;5051429;28;20045;-71
2022/10/18 11:12:25;;;;;;;11.18;1.70;;;14.80;99.90;;;;;;5042276;28;20506;-71
2022/10/18 11:15:04;;;;;;;12.13;1.65;;;14.90;99.90;;;;;;5058086;28;20401;-72
2022/10/18 11:18:00;;;;;;;8.98;1.92;;;14.90;99.90;;;;;;5059168;28;20037;-71
2022/10/18 11:20:57;;;;;;;12.80;1.83;;;14.90;99.90;;;;;;5062030;28;20044;-71
2022/10/18 11:23:28;;;;;;;12.10;1.98;;;14.90;99.90;;;;;;5061586;28;20036;-71
2022/10/18 11:26:09;;;;;;;10.85;1.73;;;15.00;99.90;;;;;;5061554;28;20049;-71
2022/10/18 11:28:35;;;;;;;14.18;1.98;;;15.00;99.90;;;;;;5061485;28;20044;-71
2022/10/18 11:31:19;;;;;;;11.70;1.65;;;15.10;99.90;;;;;;5063131;28;20048;-70
2022/10/18 11:34:07;;;;;;;12.27;1.83;;;15.10;99.90;;;;;;5060107;28;20045;-71
2022/10/18 11:36:51;;;;;;;11.68;1.92;;;15.20;99.90;;;;;;5057832;28;20481;-70
2022/10/18 11:39:19;;;;;;;11.63;2.05;;;15.30;99.90;;;;;;5070829;28;20040;-70
2022/10/18 11:42:01;;;;;;;12.00;2.50;;;15.30;99.90;;;;;;5062404;28;20041;-70
2022/10/18 11:44:36;;;;;;;11.40;1.60;;;15.40;99.90;;;;;;5057589;28;20055;-70
2022/10/18 11:47:20;;;;;;;10.55;2.13;;;15.40;99.90;;;;;;5062985;28;20067;-70
2022/10/18 11:49:52;;;;;;;11.18;1.83;;;15.40;99.90;;;;;;5061962;28;20459;-70
2022/10/18 11:52:36;;;;;;;14.07;2.55;;;15.40;99.90;;;;;;5062988;28;20105;-70
2022/10/18 11:55:31;;;;;;;13.90;2.38;;;15.40;99.90;;;;;;5058882;28;20048;-70
2022/10/18 11:57:59;;;;;;;10.85;1.58;;;15.30;99.90;;;;;;5054409;28;20572;-70
2022/10/18 12:00:25;;;;;;;11.38;1.80;;;15.30;99.90;;;;;;5065797;28;20040;-70
2022/10/18 12:03:28;;;;;;;17.08;1.80;;;15.20;99.90;;;;;;5059375;28;20043;-70
2022/10/18 12:05:57;;;;;;;16.73;2.33;;;15.10;99.90;;;;;;5068064;28;20124;-70
2022/10/18 12:08:38;;;;;;;7.78;1.60;;;15.10;99.90;;;;;;5070447;28;20040;-70
2022/10/18 12:11:11;;;;;;;;;;;15.10;99.90;;;;;;5068491;28;20048;-71
2022/10/18 12:13:47;;;;;;;11.25;1.80;;;15.10;99.90;;;;;;5071363;28;20297;-70
2022/10/18 12:16:13;;;;;;;11.02;1.88;;;15.10;99.90;;;;;;5067628;28;20524;-70
2022/10/18 12:18:52;;;;;;;10.77;1.70;;;15.10;99.90;;;;;;5070265;28;20083;-71
2022/10/18 12:21:22;;;;;;;12.18;1.80;;;15.20;99.90;;;;;;5069551;28;20056;-70
2022/10/18 12:24:02;;;;;;;12.90;2.17;;;15.20;99.90;;;;;;5067764;28;20128;-70
2022/10/18 12:26:29;;;;;;;13.40;1.83;;;15.30;99.90;;;;;;5067629;28;20119;-70
2022/10/18 12:29:04;;;;;;;16.27;1.88;;;15.30;99.90;;;;;;5067550;28;20382;-70
2022/10/18 12:31:41;;;;;;;12.23;1.50;;;15.30;99.90;;;;;;5048417;28;20530;-70
2022/10/18 12:34:22;;;;;;;8.65;1.58;;;15.30;99.90;;;;;;5064602;28;20036;-70
2022/10/18 12:36:53;;;;;;;9.43;1.70;;;15.30;99.90;;;;;;5061746;28;20465;-70
2022/10/18 12:39:44;;;;;;;8.73;1.88;;;15.30;99.90;;;;;;5061821;28;20044;-70
2022/10/18 12:42:41;;;;;;;10.55;1.90;;;15.40;99.90;;;;;;5062628;28;20310;-70
2022/10/18 12:45:12;;;;;;;11.40;1.95;;;15.50;99.90;;;;;;5059330;28;20201;-70
2022/10/18 12:47:39;;;;;;;14.18;2.50;;;15.50;99.90;;;;;;5056020;28;20455;-71
2022/10/18 12:50:33;;;;;;;10.32;1.45;;;15.50;99.90;;;;;;5067626;28;20032;-71
2022/10/18 12:53:08;;;;;;;11.85;2.10;;;15.60;99.90;;;;;;5047420;28;20692;-71
2022/10/18 12:55:37;;;;;;;11.35;1.63;;;15.60;99.90;;;;;;5038966;28;20106;-71